Time;durP1;ratioP1;P1;durP2;ratioP2;P2;SDS_P1;SDS_P2;PMS_P1;PMS_P2;Temp;Humidity;BMP_temperature;BMP_pressure;BME280_temperature;BME280_humidity;BME280_pressure;Samples;Min_cycle;Max_cycle;Signal;HPM_P1;HPM_P2
2023/12/23 00:02:14;;;;;;;17.33;9.75;;;5.80;99.90;;;;;;4885644;29;20452;-52
2023/12/23 00:04:40;;;;;;;11.82;8.75;;;5.90;99.90;;;;;;4935257;29;20110;-52
2023/12/23 00:07:06;;;;;;;11.50;7.28;;;6.10;99.90;;;;;;4935303;29;20479;-54
2023/12/23 00:09:31;;;;;;;11.15;7.00;;;6.20;99.90;;;;;;4932744;29;20051;-54
2023/12/23 00:11:57;;;;;;;10.23;7.35;;;6.20;99.90;;;;;;4933635;29;20031;-51
2023/12/23 00:14:23;;;;;;;13.35;8.75;;;6.20;99.90;;;;;;4934782;29;20031;-53
2023/12/23 00:16:48;;;;;;;13.93;9.48;;;6.10;99.90;;;;;;4916999;29;20047;-53
2023/12/23 00:19:14;;;;;;;13.63;9.48;;;5.90;99.90;;;;;;4934898;29;20030;-53
2023/12/23 00:21:41;;;;;;;12.85;8.90;;;5.80;99.90;;;;;;4932634;29;20035;-51
2023/12/23 00:24:07;;;;;;;13.15;9.18;;;5.70;99.90;;;;;;4932789;29;20488;-53
2023/12/23 00:26:33;;;;;;;13.30;8.73;;;5.50;99.90;;;;;;4884998;29;20043;-50
2023/12/23 00:28:58;;;;;;;11.55;8.13;;;5.50;99.90;;;;;;4916642;29;20044;-53
2023/12/23 00:31:24;;;;;;;10.27;7.78;;;5.60;99.90;;;;;;4934813;29;20034;-51
2023/12/23 00:33:50;;;;;;;11.98;8.00;;;5.80;99.90;;;;;;4934718;29;20091;-51
2023/12/23 00:36:16;;;;;;;25.95;18.60;;;;;;;;;;4934729;29;20023;-52
2023/12/23 00:38:42;;;;;;;40.55;23.52;;;6.70;99.90;;;;;;4934520;29;20039;-51
2023/12/23 00:41:08;;;;;;;32.38;17.52;;;;;;;;;;4932476;29;20051;-52
2023/12/23 00:43:34;;;;;;;26.27;16.55;;;6.10;99.90;;;;;;4934607;29;20036;-55
2023/12/23 00:45:59;;;;;;;24.33;14.52;;;5.90;99.90;;;;;;4934550;29;20036;-53
2023/12/23 00:48:25;;;;;;;22.38;15.57;;;5.90;99.90;;;;;;4934568;29;20031;-54
2023/12/23 00:50:51;;;;;;;9.63;5.85;;;;;;;;;;4934671;29;20030;-51
2023/12/23 00:53:17;;;;;;;14.32;9.07;;;;;;;;;;4916618;29;20039;-50
2023/12/23 00:55:43;;;;;;;14.70;9.70;;;5.40;99.90;;;;;;4934625;29;20031;-51
2023/12/23 00:58:09;;;;;;;18.83;11.88;;;5.40;99.90;;;;;;4934833;29;20027;-53
2023/12/23 01:00:34;;;;;;;20.73;13.65;;;5.60;99.90;;;;;;4934238;29;20087;-52
2023/12/23 01:03:03;;;;;;;14.88;10.25;;;5.50;99.90;;;;;;4932217;29;20078;-55
2023/12/23 01:05:29;;;;;;;11.50;5.97;;;5.50;99.90;;;;;;4932420;29;20043;-52
2023/12/23 01:07:54;;;;;;;11.65;6.35;;;5.40;99.90;;;;;;4934253;29;20448;-54
2023/12/23 01:10:24;;;;;;;11.55;8.32;;;5.30;99.90;;;;;;4916392;29;20040;-52
2023/12/23 01:12:50;;;;;;;10.90;7.13;;;5.30;99.90;;;;;;4934257;29;20032;-54
2023/12/23 01:15:15;;;;;;;10.05;7.15;;;5.30;99.90;;;;;;4934312;29;20031;-55
2023/12/23 01:17:41;;;;;;;10.65;7.07;;;5.40;99.90;;;;;;4934173;29;20023;-54
2023/12/23 01:20:07;;;;;;;9.73;6.07;;;5.30;99.90;;;;;;4932290;29;20055;-49
2023/12/23 01:22:33;;;;;;;9.38;5.80;;;5.30;99.90;;;;;;4934334;29;20468;-52
2023/12/23 01:24:58;;;;;;;7.47;4.30;;;5.20;99.90;;;;;;4934118;29;20039;-51
2023/12/23 01:27:24;;;;;;;11.95;7.68;;;5.30;99.90;;;;;;4934255;29;20023;-52
2023/12/23 01:29:50;;;;;;;10.23;6.80;;;5.30;99.90;;;;;;4934493;29;20040;-52
2023/12/23 01:32:16;;;;;;;12.82;9.52;;;5.30;99.90;;;;;;4934251;29;20039;-49
2023/12/23 01:34:42;;;;;;;7.30;4.57;;;5.50;99.90;;;;;;4934008;29;20052;-52
2023/12/23 01:37:08;;;;;;;9.63;6.70;;;5.50;99.90;;;;;;4935160;29;20028;-49
2023/12/23 01:39:33;;;;;;;10.25;7.22;;;5.60;99.90;;;;;;4937368;29;20118;-52
2023/12/23 01:41:59;;;;;;;15.15;10.02;;;5.70;99.90;;;;;;4919414;29;20103;-50
2023/12/23 01:44:25;;;;;;;18.02;10.95;;;5.90;99.90;;;;;;4937600;29;20049;-53
2023/12/23 01:46:53;;;;;;;20.17;12.48;;;6.10;99.90;;;;;;4935108;29;20039;-50
2023/12/23 01:49:20;;;;;;;11.57;7.53;;;6.40;99.90;;;;;;4935333;29;20075;-53
2023/12/23 01:51:47;;;;;;;13.77;9.02;;;6.60;99.90;;;;;;4937456;29;20107;-51
2023/12/23 01:54:13;;;;;;;12.75;8.63;;;;;;;;;;4936964;29;20094;-53
2023/12/23 01:56:39;;;;;;;13.50;7.60;;;7.00;99.90;;;;;;4937184;29;20028;-52
2023/12/23 01:59:05;;;;;;;21.13;13.50;;;7.10;99.90;;;;;;4936886;29;20066;-52
2023/12/23 02:01:32;;;;;;;8.40;6.55;;;7.20;99.90;;;;;;4937223;29;20035;-53
2023/12/23 02:03:57;;;;;;;7.90;5.93;;;7.30;99.90;;;;;;4940649;29;20133;-53
2023/12/23 02:06:23;;;;;;;8.43;6.22;;;7.20;99.90;;;;;;4955683;29;20615;-52
2023/12/23 02:08:49;;;;;;;11.75;6.38;;;7.20;99.90;;;;;;4905663;29;20039;-52
2023/12/23 02:11:28;;;;;;;9.23;6.78;;;7.20;99.90;;;;;;4955639;29;20038;-50
2023/12/23 02:14:31;;;;;;;7.32;5.85;;;7.20;99.90;;;;;;4933549;29;20043;-52
2023/12/23 02:16:57;;;;;;;9.02;6.53;;;;;;;;;;4934236;29;20083;-53
2023/12/23 02:19:23;;;;;;;21.23;12.68;;;7.50;99.90;;;;;;4936776;29;20036;-53
2023/12/23 02:21:49;;;;;;;10.93;8.48;;;7.50;99.90;;;;;;4938885;29;20036;-52
2023/12/23 02:24:15;;;;;;;9.93;6.40;;;7.60;99.90;;;;;;4955080;29;20031;-50
2023/12/23 02:26:43;;;;;;;9.50;6.55;;;7.40;99.90;;;;;;4854782;29;20487;-52
2023/12/23 02:29:11;;;;;;;8.80;6.10;;;7.10;99.90;;;;;;4936811;29;20365;-53
2023/12/23 02:31:37;;;;;;;8.85;6.45;;;7.10;99.90;;;;;;4936460;29;20039;-53
2023/12/23 02:34:03;;;;;;;9.60;6.90;;;7.30;99.90;;;;;;4936259;29;20058;-52
2023/12/23 02:36:28;;;;;;;10.10;6.47;;;7.50;99.90;;;;;;4936416;29;20466;-55
2023/12/23 02:38:54;;;;;;;10.70;6.15;;;7.30;99.90;;;;;;4902437;29;20046;-54
2023/12/23 02:41:20;;;;;;;9.00;7.00;;;7.20;99.90;;;;;;4936417;29;20039;-53
2023/12/23 02:43:45;;;;;;;9.35;6.95;;;7.00;99.90;;;;;;4936568;29;20042;-50
2023/12/23 02:46:11;;;;;;;11.20;7.65;;;7.00;99.90;;;;;;4936107;29;20062;-50
2023/12/23 02:48:37;;;;;;;9.45;6.88;;;7.10;99.90;;;;;;4935808;29;20043;-50
2023/12/23 02:51:03;;;;;;;10.00;6.82;;;7.10;99.90;;;;;;4935910;29;20122;-54
2023/12/23 02:53:28;;;;;;;10.65;7.32;;;6.80;99.90;;;;;;4902368;29;20052;-52
2023/12/23 02:55:54;;;;;;;9.27;7.55;;;6.70;99.90;;;;;;4935979;29;20061;-50
2023/12/23 02:58:20;;;;;;;13.10;8.55;;;6.70;99.90;;;;;;4902250;29;20044;-55
2023/12/23 03:00:45;;;;;;;14.43;10.63;;;6.60;99.90;;;;;;4935670;29;20496;-53
2023/12/23 03:03:11;;;;;;;13.30;9.15;;;6.60;99.90;;;;;;4935683;29;20068;-52
2023/12/23 03:05:37;;;;;;;12.38;8.38;;;6.70;99.90;;;;;;4935869;29;20036;-52
2023/12/23 03:08:03;;;;;;;13.27;8.45;;;6.70;99.90;;;;;;4901946;29;20518;-53
2023/12/23 03:10:28;;;;;;;11.52;7.72;;;6.60;99.90;;;;;;4901963;29;20062;-49
2023/12/23 03:12:54;;;;;;;11.23;6.35;;;6.70;99.90;;;;;;4935670;29;20068;-53
2023/12/23 03:15:20;;;;;;;7.90;5.88;;;6.70;99.90;;;;;;4935311;29;20040;-51
2023/12/23 03:17:46;;;;;;;9.25;6.13;;;6.80;99.90;;;;;;4935550;29;20055;-53
2023/12/23 03:20:11;;;;;;;8.95;6.85;;;6.70;99.90;;;;;;4901788;29;20035;-52
2023/12/23 03:22:37;;;;;;;20.85;8.60;;;6.60;99.90;;;;;;4935797;29;20076;-52
2023/12/23 03:25:04;;;;;;;10.70;7.60;;;;;;;;;;4901756;29;20391;-52
2023/12/23 03:27:29;;;;;;;10.15;6.53;;;6.30;99.90;;;;;;4935867;29;20032;-51
2023/12/23 03:29:55;;;;;;;13.80;8.13;;;6.30;99.90;;;;;;4935601;29;20047;-50
2023/12/23 03:32:21;;;;;;;10.73;7.75;;;6.10;99.90;;;;;;4935492;29;20166;-54
2023/12/23 03:34:46;;;;;;;12.00;8.13;;;6.10;99.90;;;;;;4935498;29;20043;-51
2023/12/23 03:37:12;;;;;;;10.00;6.20;;;6.10;99.90;;;;;;4935264;29;20031;-52
2023/12/23 03:39:38;;;;;;;8.65;6.53;;;6.00;99.90;;;;;;4935409;29;20035;-50
2023/12/23 03:42:04;;;;;;;11.93;6.95;;;6.00;99.90;;;;;;4952301;29;20039;-51
2023/12/23 03:44:30;;;;;;;8.88;5.60;;;6.00;99.90;;;;;;4904669;29;20046;-52
2023/12/23 03:46:56;;;;;;;9.25;6.50;;;6.00;99.90;;;;;;4954074;29;20117;-51
2023/12/23 03:49:22;;;;;;;9.88;7.28;;;6.10;99.90;;;;;;4954249;29;20035;-53
2023/12/23 03:51:47;;;;;;;9.45;6.28;;;6.20;99.90;;;;;;4954225;29;20031;-52
2023/12/23 03:54:13;;;;;;;8.95;6.45;;;6.20;99.90;;;;;;4952102;29;20035;-50
2023/12/23 03:56:39;;;;;;;14.45;8.32;;;6.20;99.90;;;;;;4951910;29;20075;-53
2023/12/23 03:59:05;;;;;;;13.38;6.85;;;6.40;99.90;;;;;;4953870;28;20063;-52
2023/12/23 04:01:31;;;;;;;9.05;6.55;;;;;;;;;;4953635;29;20050;-53
2023/12/23 04:03:57;;;;;;;10.48;6.55;;;6.70;99.90;;;;;;4954358;29;20081;-54
2023/12/23 04:06:22;;;;;;;10.30;5.65;;;6.70;99.90;;;;;;4954111;29;20074;-54
2023/12/23 04:08:48;;;;;;;8.73;5.65;;;6.80;99.90;;;;;;4953811;29;20043;-53
2023/12/23 04:11:14;;;;;;;8.40;5.40;;;7.00;99.90;;;;;;4953910;29;20043;-53
2023/12/23 04:13:40;;;;;;;6.63;4.53;;;7.10;99.90;;;;;;4953945;29;20031;-55
2023/12/23 04:16:05;;;;;;;6.95;4.68;;;7.20;99.90;;;;;;4953717;29;20058;-51
2023/12/23 04:18:31;;;;;;;6.45;4.53;;;7.20;99.90;;;;;;4953965;29;20113;-54
2023/12/23 04:21:00;;;;;;;5.32;4.15;;;;;;;;;;4953982;29;20039;-51
2023/12/23 04:23:26;;;;;;;8.10;5.32;;;7.40;99.90;;;;;;4953956;29;20023;-54
2023/12/23 04:25:52;;;;;;;7.75;5.75;;;7.30;99.90;;;;;;4951654;29;20391;-49
2023/12/23 04:28:24;;;;;;;10.60;5.80;;;7.30;99.90;;;;;;4953596;29;20043;-51
2023/12/23 04:30:53;;;;;;;9.77;5.43;;;7.40;99.90;;;;;;4954039;29;20479;-53
2023/12/23 04:33:20;;;;;;;7.45;4.47;;;7.40;99.90;;;;;;4953666;29;20043;-53
2023/12/23 04:35:45;;;;;;;5.75;3.70;;;7.50;99.90;;;;;;4953550;29;20035;-50
2023/12/23 04:38:13;;;;;;;4.90;3.72;;;7.50;99.90;;;;;;4954106;29;20047;-50
2023/12/23 04:40:38;;;;;;;9.23;4.10;;;7.40;99.90;;;;;;4953438;29;20040;-52
2023/12/23 04:43:04;;;;;;;5.07;3.38;;;7.30;99.90;;;;;;4953645;29;20046;-53
2023/12/23 04:45:30;;;;;;;5.63;3.70;;;7.30;99.90;;;;;;4953627;29;20051;-54
2023/12/23 04:47:56;;;;;;;5.63;3.92;;;7.20;99.90;;;;;;4953431;29;20487;-54
2023/12/23 04:50:22;;;;;;;4.30;3.35;;;7.10;99.90;;;;;;4953539;29;20035;-52
2023/12/23 04:52:47;;;;;;;5.43;3.75;;;7.10;99.90;;;;;;4953625;29;20062;-53
2023/12/23 04:55:14;;;;;;;6.13;4.70;;;7.10;99.90;;;;;;4953667;29;20046;-53
2023/12/23 04:57:40;;;;;;;6.05;4.78;;;7.10;99.90;;;;;;4904109;29;20138;-50
2023/12/23 05:00:07;;;;;;;7.32;4.22;;;7.20;99.90;;;;;;4953466;29;20141;-52
2023/12/23 05:02:33;;;;;;;6.28;3.72;;;7.10;99.90;;;;;;4904152;29;20054;-51
2023/12/23 05:04:59;;;;;;;6.72;3.92;;;7.00;99.90;;;;;;4953300;29;20031;-52
2023/12/23 05:07:25;;;;;;;5.68;3.83;;;7.00;99.90;;;;;;4953397;29;20539;-53
2023/12/23 05:09:50;;;;;;;9.30;3.30;;;6.90;99.90;;;;;;4953225;29;20035;-54
2023/12/23 05:12:16;;;;;;;7.28;3.75;;;6.90;99.90;;;;;;4954401;28;20031;-50
2023/12/23 05:14:42;;;;;;;6.07;3.75;;;6.90;99.90;;;;;;4957056;29;20043;-51
2023/12/23 05:17:07;;;;;;;6.45;4.35;;;6.90;99.90;;;;;;4957251;29;20035;-51
2023/12/23 05:19:34;;;;;;;5.97;3.67;;;6.80;99.90;;;;;;4956991;29;20023;-51
2023/12/23 05:22:00;;;;;;;6.55;4.50;;;6.80;99.90;;;;;;4956833;29;20062;-51
2023/12/23 05:24:26;;;;;;;6.75;3.85;;;6.70;99.90;;;;;;4957008;29;20466;-50
2023/12/23 05:26:51;;;;;;;6.25;4.03;;;6.70;99.90;;;;;;4956925;29;20063;-51
2023/12/23 05:29:17;;;;;;;7.50;3.83;;;6.70;99.90;;;;;;4957098;29;20047;-52
2023/12/23 05:31:43;;;;;;;8.23;4.82;;;6.70;99.90;;;;;;4956917;29;20695;-51
2023/12/23 05:34:09;;;;;;;5.07;4.40;;;6.80;99.90;;;;;;4956772;29;20039;-50
2023/12/23 05:36:35;;;;;;;7.20;4.97;;;6.90;99.90;;;;;;4956862;29;20179;-53
2023/12/23 05:39:00;;;;;;;8.07;4.72;;;6.90;99.90;;;;;;4891157;29;20403;-52
2023/12/23 05:41:26;;;;;;;5.85;5.22;;;6.80;99.90;;;;;;4956595;29;20035;-50
2023/12/23 05:43:52;;;;;;;6.03;4.70;;;;;;;;;;4952968;29;20043;-52
2023/12/23 05:46:18;;;;;;;4.93;3.75;;;6.70;99.90;;;;;;4947022;29;20035;-53
2023/12/23 05:48:43;;;;;;;4.15;3.47;;;6.60;99.90;;;;;;4956338;29;20053;-53
2023/12/23 05:51:10;;;;;;;4.60;3.22;;;6.60;99.90;;;;;;4954219;29;20180;-52
2023/12/23 05:53:36;;;;;;;5.50;3.38;;;6.60;99.90;;;;;;4956429;29;20493;-52
2023/12/23 05:56:06;;;;;;;4.95;3.80;;;6.50;99.90;;;;;;4938984;29;20031;-51
2023/12/23 05:58:32;;;;;;;4.28;3.05;;;6.50;99.90;;;;;;4955973;29;20046;-53
2023/12/23 06:00:58;;;;;;;5.28;3.55;;;6.40;99.90;;;;;;4956126;29;20039;-50
2023/12/23 06:03:24;;;;;;;3.85;2.83;;;6.50;99.90;;;;;;4956618;29;20047;-53
2023/12/23 06:05:49;;;;;;;6.50;3.97;;;6.50;99.90;;;;;;4956255;29;20091;-51
2023/12/23 06:08:15;;;;;;;7.47;3.78;;;6.40;99.90;;;;;;4955950;29;20043;-51
2023/12/23 06:10:41;;;;;;;4.63;3.63;;;6.40;99.90;;;;;;4955924;29;20031;-54
2023/12/23 06:13:07;;;;;;;6.40;3.95;;;6.50;99.90;;;;;;4955856;29;20069;-54
2023/12/23 06:15:33;;;;;;;4.72;3.25;;;6.60;99.90;;;;;;4956050;29;20041;-52
2023/12/23 06:17:58;;;;;;;4.07;2.90;;;6.60;99.90;;;;;;4955748;29;20035;-52
2023/12/23 06:20:24;;;;;;;6.80;3.65;;;6.60;99.90;;;;;;4955933;29;20039;-54
2023/12/23 06:22:50;;;;;;;3.05;2.53;;;6.60;99.90;;;;;;4955372;28;20174;-54
2023/12/23 06:25:16;;;;;;;6.20;4.15;;;6.60;99.90;;;;;;4955734;29;20042;-50
2023/12/23 06:27:42;;;;;;;5.55;3.35;;;6.70;99.90;;;;;;4955624;29;20027;-51
2023/12/23 06:30:08;;;;;;;5.68;3.72;;;6.70;99.90;;;;;;4955901;29;20035;-50
2023/12/23 06:32:34;;;;;;;7.70;4.82;;;6.70;99.90;;;;;;4955602;29;20114;-51
2023/12/23 06:35:00;;;;;;;8.85;4.03;;;6.70;99.90;;;;;;4955709;29;20114;-53
2023/12/23 06:37:25;;;;;;;19.17;4.90;;;6.80;99.90;;;;;;4955871;29;20031;-52
2023/12/23 06:39:51;;;;;;;15.60;8.32;;;6.80;99.90;;;;;;4955362;29;20232;-51
2023/12/23 06:42:17;;;;;;;6.88;4.18;;;6.70;99.90;;;;;;4955289;29;20050;-51
2023/12/23 06:44:43;;;;;;;10.50;5.32;;;6.80;99.90;;;;;;4955691;29;20037;-51
2023/12/23 06:47:09;;;;;;;42.53;15.70;;;6.90;99.90;;;;;;4938144;29;20107;-53
2023/12/23 06:49:35;;;;;;;158.85;60.33;;;7.00;99.90;;;;;;4955430;29;20043;-53
2023/12/23 06:52:00;;;;;;;123.10;46.88;;;6.90;99.90;;;;;;4955155;29;20118;-52
2023/12/23 06:54:26;;;;;;;27.70;13.40;;;6.90;99.90;;;;;;4955349;29;20041;-52
2023/12/23 06:56:52;;;;;;;14.38;7.05;;;7.00;99.90;;;;;;4954230;29;20163;-51
2023/12/23 06:59:17;;;;;;;23.08;11.50;;;7.10;99.90;;;;;;4954720;29;20047;-52
2023/12/23 07:01:43;;;;;;;16.75;8.07;;;7.10;99.90;;;;;;4920900;29;20039;-53
2023/12/23 07:04:09;;;;;;;56.50;26.42;;;7.00;99.90;;;;;;4955306;29;20498;-51
2023/12/23 07:06:36;;;;;;;4.03;2.70;;;6.90;99.90;;;;;;4954978;29;20447;-51
2023/12/23 07:09:02;;;;;;;10.93;4.90;;;6.90;99.90;;;;;;4921057;29;20059;-53
2023/12/23 07:11:28;;;;;;;5.55;3.70;;;7.00;99.90;;;;;;4920924;29;20491;-51
2023/12/23 07:13:54;;;;;;;9.95;5.20;;;7.00;99.90;;;;;;4954805;29;20042;-50
2023/12/23 07:16:20;;;;;;;8.13;6.47;;;7.10;99.90;;;;;;4936738;29;20066;-52
2023/12/23 07:18:45;;;;;;;7.30;6.45;;;7.10;99.90;;;;;;4954732;29;20046;-52
2023/12/23 07:21:12;;;;;;;8.23;7.32;;;7.10;99.90;;;;;;4954639;29;20121;-51
2023/12/23 07:23:38;;;;;;;5.63;4.32;;;7.20;99.90;;;;;;4954698;29;20035;-53
2023/12/23 07:26:04;;;;;;;11.95;7.72;;;7.20;99.90;;;;;;4954111;29;20043;-53
2023/12/23 07:28:30;;;;;;;7.80;7.00;;;7.20;99.90;;;;;;4954693;29;20158;-53
2023/12/23 07:30:56;;;;;;;3.20;2.67;;;7.20;99.90;;;;;;4954197;29;20117;-52
2023/12/23 07:33:22;;;;;;;3.83;2.67;;;7.10;99.90;;;;;;4954405;29;21119;-48
2023/12/23 07:35:48;;;;;;;7.00;3.00;;;7.10;99.90;;;;;;4951692;28;20046;-54
2023/12/23 07:38:14;;;;;;;4.28;2.90;;;7.20;99.90;;;;;;4954442;29;20030;-52
2023/12/23 07:40:40;;;;;;;4.70;3.38;;;7.30;99.90;;;;;;4954693;29;20035;-50
2023/12/23 07:43:06;;;;;;;3.45;3.03;;;7.40;99.90;;;;;;4904858;29;20129;-52
2023/12/23 07:45:32;;;;;;;5.93;3.28;;;7.30;99.90;;;;;;4954256;29;20122;-53
2023/12/23 07:47:57;;;;;;;5.85;3.13;;;7.40;99.90;;;;;;4904723;29;20054;-50
2023/12/23 07:50:23;;;;;;;4.00;2.83;;;7.50;99.90;;;;;;4904524;29;20047;-53
2023/12/23 07:52:49;;;;;;;4.07;3.00;;;7.50;99.90;;;;;;4904579;29;20130;-50
2023/12/23 07:55:15;;;;;;;3.88;2.92;;;7.50;99.90;;;;;;4954107;29;20049;-51
2023/12/23 07:57:45;;;;;;;4.00;2.53;;;7.60;99.90;;;;;;4951971;29;20035;-52
2023/12/23 08:00:11;;;;;;;4.13;2.78;;;7.60;99.90;;;;;;4954503;29;20113;-52
2023/12/23 08:02:37;;;;;;;3.58;2.90;;;7.70;99.90;;;;;;4920324;29;20054;-51
2023/12/23 08:05:04;;;;;;;4.82;2.88;;;7.80;99.90;;;;;;4904747;29;20054;-53
2023/12/23 08:07:29;;;;;;;4.57;2.60;;;7.90;99.90;;;;;;4952078;29;20446;-52
2023/12/23 08:09:55;;;;;;;5.78;2.88;;;8.00;99.90;;;;;;4888904;29;20066;-52
2023/12/23 08:12:21;;;;;;;4.88;2.80;;;7.90;99.90;;;;;;4954422;29;20473;-52
2023/12/23 08:14:46;;;;;;;6.68;3.67;;;8.00;99.90;;;;;;4953887;29;20033;-51
2023/12/23 08:17:12;;;;;;;4.53;3.70;;;8.10;99.90;;;;;;4940389;29;20082;-52
2023/12/23 08:19:38;;;;;;;5.72;2.97;;;8.10;99.90;;;;;;4916516;29;20072;-51
2023/12/23 08:22:05;;;;;;;5.32;4.15;;;8.00;99.90;;;;;;4934698;29;20110;-52
2023/12/23 08:24:31;;;;;;;4.88;4.07;;;8.10;99.90;;;;;;4934746;29;20127;-53
2023/12/23 08:26:57;;;;;;;3.92;2.17;;;8.00;99.90;;;;;;4934748;29;20119;-51
2023/12/23 08:29:24;;;;;;;5.40;2.72;;;8.10;99.90;;;;;;4934672;29;20039;-52
2023/12/23 08:31:50;;;;;;;10.90;3.17;;;8.00;99.90;;;;;;4934543;29;20047;-52
2023/12/23 08:34:17;;;;;;;4.63;2.92;;;8.00;99.90;;;;;;4934799;29;20040;-53
2023/12/23 08:36:43;;;;;;;10.93;7.75;;;8.00;99.90;;;;;;4934458;29;20403;-50
2023/12/23 08:39:08;;;;;;;5.70;4.28;;;7.80;99.90;;;;;;4934584;29;20032;-51
2023/12/23 08:41:37;;;;;;;5.15;3.67;;;7.80;99.90;;;;;;4934438;29;20044;-53
2023/12/23 08:44:03;;;;;;;4.25;2.75;;;7.80;99.90;;;;;;4934709;29;20038;-54
2023/12/23 08:46:30;;;;;;;4.78;3.08;;;7.70;99.90;;;;;;4936329;29;20031;-50
2023/12/23 08:48:56;;;;;;;3.65;2.30;;;7.80;99.90;;;;;;4938250;29;20042;-50
2023/12/23 08:51:22;;;;;;;44.25;40.05;;;7.80;99.90;;;;;;4938580;29;20027;-52
2023/12/23 08:53:48;;;;;;;3.38;2.45;;;7.70;99.90;;;;;;4938404;29;20134;-51
2023/12/23 08:56:13;;;;;;;5.20;3.20;;;7.50;99.90;;;;;;4920329;29;20040;-52
2023/12/23 08:58:39;;;;;;;3.25;2.22;;;7.50;99.90;;;;;;4920079;29;20044;-54
2023/12/23 09:01:05;;;;;;;4.82;3.50;;;7.40;99.90;;;;;;4937999;29;20046;-52
2023/12/23 09:03:31;;;;;;;5.10;3.97;;;7.40;99.90;;;;;;4938229;29;20047;-53
2023/12/23 09:05:58;;;;;;;6.20;5.60;;;7.40;99.90;;;;;;4938153;29;20043;-53
2023/12/23 09:08:24;;;;;;;4.53;3.40;;;7.20;99.90;;;;;;4904289;29;20056;-50
2023/12/23 09:10:50;;;;;;;4.05;2.70;;;7.40;99.90;;;;;;4946114;29;20039;-53
2023/12/23 09:13:16;;;;;;;7.35;4.25;;;7.30;99.90;;;;;;4956855;29;20086;-53
2023/12/23 09:15:42;;;;;;;6.22;3.38;;;7.40;99.90;;;;;;4956527;29;20031;-53
2023/12/23 09:18:07;;;;;;;4.15;3.03;;;7.40;99.90;;;;;;4957137;29;20046;-50
2023/12/23 09:20:33;;;;;;;12.63;11.38;;;7.40;99.90;;;;;;4957223;29;20035;-51
2023/12/23 09:22:59;;;;;;;3.88;3.17;;;7.50;99.90;;;;;;4956897;29;20050;-51
2023/12/23 09:25:25;;;;;;;7.10;3.25;;;7.50;99.90;;;;;;4957342;29;20038;-52
2023/12/23 09:27:51;;;;;;;8.38;5.22;;;7.50;99.90;;;;;;4956774;29;20027;-51
2023/12/23 09:30:17;;;;;;;5.80;3.00;;;7.60;99.90;;;;;;4956941;29;20043;-52
2023/12/23 09:32:42;;;;;;;4.28;2.95;;;7.50;99.90;;;;;;4938675;29;20054;-51
2023/12/23 09:35:08;;;;;;;9.60;5.30;;;7.50;99.90;;;;;;4956865;29;20034;-54
2023/12/23 09:37:34;;;;;;;7.07;4.95;;;7.30;99.90;;;;;;4938692;29;20047;-54
2023/12/23 09:40:01;;;;;;;14.02;9.38;;;7.40;99.90;;;;;;4954670;29;20043;-54
2023/12/23 09:42:28;;;;;;;16.92;10.73;;;7.40;99.90;;;;;;4907435;29;20095;-51
2023/12/23 09:44:54;;;;;;;17.05;11.93;;;7.40;99.90;;;;;;4956722;29;20455;-52
2023/12/23 09:47:20;;;;;;;14.57;8.52;;;7.50;99.90;;;;;;4955777;29;20039;-50
2023/12/23 09:49:46;;;;;;;9.57;6.03;;;7.60;99.90;;;;;;4955851;29;20045;-50
2023/12/23 09:52:13;;;;;;;6.18;4.68;;;7.80;99.90;;;;;;4922073;29;20134;-51
2023/12/23 09:54:47;;;;;;;7.03;4.40;;;7.90;99.90;;;;;;4956428;29;20038;-50
2023/12/23 09:57:14;;;;;;;3.97;3.10;;;;;;;;;;4956117;28;20039;-50
2023/12/23 09:59:40;;;;;;;7.82;2.22;;;8.60;99.90;;;;;;4949034;28;20054;-51
2023/12/23 10:02:05;;;;;;;2.92;1.98;;;8.70;99.90;;;;;;4943439;29;20122;-53
2023/12/23 10:04:33;;;;;;;3.90;2.30;;;8.80;99.90;;;;;;4947378;29;20079;-53
2023/12/23 10:06:58;;;;;;;2.80;1.50;;;8.90;99.90;;;;;;4944127;29;20379;-53
2023/12/23 10:09:27;;;;;;;9.45;4.15;;;9.00;99.90;;;;;;4953589;29;20075;-53
2023/12/23 10:11:52;;;;;;;1.17;1.08;;;9.10;99.90;;;;;;4946078;29;20392;-54
2023/12/23 10:14:20;;;;;;;4.53;1.63;;;9.10;99.90;;;;;;4948492;29;20027;-52
2023/12/23 10:16:46;;;;;;;2.90;1.60;;;9.10;99.90;;;;;;4952143;29;20091;-52
2023/12/23 10:19:12;;;;;;;8.88;2.80;;;9.20;99.90;;;;;;4911619;29;20039;-52
2023/12/23 10:21:41;;;;;;;10.68;4.38;;;9.20;99.90;;;;;;4926070;29;20042;-52
2023/12/23 10:24:07;;;;;;;17.08;12.00;;;9.20;99.90;;;;;;4945258;29;20046;-50
2023/12/23 10:26:34;;;;;;;4.95;4.10;;;9.20;99.90;;;;;;4931914;29;20127;-51
2023/12/23 10:29:04;;;;;;;4.10;1.98;;;9.10;99.90;;;;;;4953462;29;20171;-52
2023/12/23 10:31:33;;;;;;;6.35;4.32;;;9.00;99.90;;;;;;4944752;29;20019;-52
2023/12/23 10:34:11;;;;;;;6.68;3.42;;;8.80;99.90;;;;;;4936064;29;20812;-50
2023/12/23 10:36:41;;;;;;;2.83;2.33;;;8.80;99.90;;;;;;4948947;29;20032;-51
2023/12/23 10:39:30;;;;;;;7.97;6.55;;;8.90;99.90;;;;;;4899548;29;20036;-53
2023/12/23 10:41:58;;;;;;;8.38;2.78;;;8.70;99.90;;;;;;4906717;29;20557;-54
2023/12/23 10:44:26;;;;;;;5.13;3.22;;;9.00;99.90;;;;;;4908243;29;20044;-54
2023/12/23 10:46:53;;;;;;;5.45;3.40;;;9.00;99.90;;;;;;4906809;29;20032;-54
2023/12/23 10:49:22;;;;;;;4.43;2.20;;;9.10;99.90;;;;;;4906542;29;20540;-52
2023/12/23 10:51:49;;;;;;;21.17;8.90;;;9.10;99.90;;;;;;4902049;29;20122;-53
2023/12/23 10:54:15;;;;;;;3.65;1.88;;;9.20;99.90;;;;;;4903154;29;20494;-51
2023/12/23 10:56:41;;;;;;;5.18;2.67;;;9.20;99.90;;;;;;4905553;29;20028;-53
2023/12/23 10:59:07;;;;;;;2.38;1.80;;;9.20;99.90;;;;;;4904067;29;20646;-50
2023/12/23 11:01:34;;;;;;;15.80;8.40;;;;;;;;;;4889919;29;20039;-55
2023/12/23 11:04:01;;;;;;;10.80;2.63;;;9.40;99.90;;;;;;4901922;29;20044;-52
2023/12/23 11:06:30;;;;;;;186.13;99.20;;;9.30;99.90;;;;;;4911910;29;20516;-53
2023/12/23 11:08:58;;;;;;;66.07;36.58;;;9.40;99.90;;;;;;4905454;29;20090;-53
2023/12/23 11:11:25;;;;;;;5.53;4.28;;;9.20;99.90;;;;;;4940687;29;20051;-55
2023/12/23 11:13:51;;;;;;;2.50;1.60;;;9.30;99.90;;;;;;4945980;29;20158;-52
2023/12/23 11:16:18;;;;;;;3.78;2.20;;;9.40;99.90;;;;;;4944011;29;20387;-51
2023/12/23 11:18:44;;;;;;;2.60;2.08;;;9.50;99.90;;;;;;4904985;29;20040;-53
2023/12/23 11:21:20;;;;;;;2.92;1.48;;;9.50;99.90;;;;;;4952180;29;20031;-52
2023/12/23 11:23:47;;;;;;;3.40;1.35;;;9.50;99.90;;;;;;4947303;29;20040;-55
2023/12/23 11:26:41;;;;;;;9.73;3.30;;;9.50;99.90;;;;;;4944502;29;20027;-53
2023/12/23 11:29:08;;;;;;;2.80;1.75;;;9.60;99.90;;;;;;4943667;29;20054;-52
2023/12/23 11:31:34;;;;;;;3.22;2.17;;;;;;;;;;4946482;29;20031;-53
2023/12/23 11:34:00;;;;;;;6.68;1.83;;;9.70;99.90;;;;;;4946402;29;20522;-52
2023/12/23 11:36:26;;;;;;;2.75;1.55;;;9.60;99.90;;;;;;4942380;29;20078;-50
2023/12/23 11:38:53;;;;;;;5.38;1.70;;;9.60;99.90;;;;;;4946417;29;20414;-51
2023/12/23 11:41:20;;;;;;;3.22;1.50;;;9.70;99.90;;;;;;4947643;29;20032;-52
2023/12/23 11:43:47;;;;;;;6.32;3.63;;;9.70;99.90;;;;;;4947501;29;20095;-50
2023/12/23 11:46:15;;;;;;;6.10;3.10;;;9.70;99.90;;;;;;4941669;29;20063;-50
2023/12/23 11:48:40;;;;;;;5.75;3.10;;;9.70;99.90;;;;;;4949866;29;20270;-48
2023/12/23 11:51:07;;;;;;;2.17;1.45;;;9.60;99.90;;;;;;4948531;29;20063;-48
2023/12/23 11:53:33;;;;;;;3.50;2.22;;;9.60;99.90;;;;;;4949130;29;20042;-52
2023/12/23 11:55:59;;;;;;;2.70;1.23;;;9.60;99.90;;;;;;4945995;29;20035;-48
2023/12/23 11:58:26;;;;;;;2.17;1.20;;;9.60;99.90;;;;;;4910768;29;20036;-49
2023/12/23 12:00:53;;;;;;;5.10;1.35;;;9.70;99.90;;;;;;4938143;29;20106;-47
2023/12/23 12:03:20;;;;;;;1.70;1.45;;;9.70;99.10;;;;;;4947852;29;20126;-49
2023/12/23 12:05:46;;;;;;;3.05;1.27;;;;;;;;;;4945240;29;20487;-52
2023/12/23 12:08:12;;;;;;;2.17;1.17;;;9.70;97.90;;;;;;4941942;29;20492;-52
2023/12/23 12:10:38;;;;;;;4.05;1.75;;;9.70;98.60;;;;;;4943761;29;20038;-50
2023/12/23 12:13:04;;;;;;;2.45;1.20;;;9.60;98.30;;;;;;4945013;29;20032;-49
2023/12/23 12:15:30;;;;;;;2.63;1.42;;;9.70;98.20;;;;;;4897046;29;20468;-50
2023/12/23 12:17:55;;;;;;;4.05;2.15;;;9.40;98.70;;;;;;4947756;29;20042;-52
2023/12/23 12:20:22;;;;;;;3.03;1.70;;;9.30;98.60;;;;;;4945486;29;20115;-49
2023/12/23 12:22:48;;;;;;;2.67;2.03;;;9.30;99.80;;;;;;4950991;29;20046;-50
2023/12/23 12:25:15;;;;;;;2.40;1.15;;;9.40;99.50;;;;;;4944882;29;20047;-52
2023/12/23 12:27:42;;;;;;;4.47;1.50;;;9.40;98.50;;;;;;4945325;29;20403;-51
2023/12/23 12:30:09;;;;;;;2.30;1.23;;;9.50;98.60;;;;;;4944021;29;20039;-52
2023/12/23 12:32:35;;;;;;;1.63;1.30;;;;;;;;;;4945505;29;20035;-52
2023/12/23 12:35:02;;;;;;;2.55;0.88;;;9.60;97.70;;;;;;4941983;29;20112;-50
2023/12/23 12:37:28;;;;;;;2.25;1.30;;;9.70;98.20;;;;;;4918771;29;20042;-51
2023/12/23 12:39:54;;;;;;;2.15;0.90;;;9.70;98.40;;;;;;4947086;29;20031;-52
2023/12/23 12:42:21;;;;;;;2.65;1.35;;;9.70;96.30;;;;;;4943798;29;20379;-51
2023/12/23 12:44:47;;;;;;;7.80;2.83;;;9.80;96.90;;;;;;4908625;29;20442;-50
2023/12/23 12:47:13;;;;;;;1.20;0.85;;;9.90;97.10;;;;;;4941035;29;20038;-52
2023/12/23 12:49:45;;;;;;;3.00;1.42;;;9.80;96.40;;;;;;4940992;29;20393;-51
2023/12/23 12:52:11;;;;;;;5.20;2.22;;;9.80;96.00;;;;;;4916077;29;20048;-52
2023/12/23 12:54:38;;;;;;;4.28;1.67;;;9.90;96.30;;;;;;4949006;28;20065;-50